createdAt,value
2022-12-29T00:02:39.146Z,64.49
2022-12-29T00:05:25.186Z,63.90
2022-12-29T00:08:10.820Z,63.86
2022-12-29T00:10:55.971Z,64.01
2022-12-29T00:14:00.527Z,63.71
2022-12-29T00:16:46.664Z,63.55
2022-12-29T00:19:50.823Z,63.85
2022-12-29T00:22:54.878Z,63.32
2022-12-29T00:25:58.931Z,63.35
2022-12-29T00:29:07.333Z,63.39
2022-12-29T00:32:11.760Z,63.08
2022-12-29T00:35:09.467Z,63.08
2022-12-29T00:38:15.108Z,63.14
2022-12-29T00:41:18.925Z,63.11
2022-12-29T00:44:07.337Z,62.82
2022-12-29T00:46:52.871Z,62.71
2022-12-29T00:49:38.393Z,62.45
2022-12-29T00:52:23.746Z,62.42
2022-12-29T00:55:09.097Z,62.46
2022-12-29T00:57:54.427Z,62.42
2022-12-29T01:00:40.094Z,62.27
2022-12-29T01:03:25.527Z,62.27
2022-12-29T01:06:12.975Z,61.97
2022-12-29T01:09:17.185Z,62.09
2022-12-29T01:12:03.916Z,62.42
2022-12-29T01:14:49.597Z,62.15
2022-12-29T01:17:35.430Z,61.90
2022-12-29T01:20:21.970Z,62.22
2022-12-29T01:23:07.338Z,62.07
2022-12-29T01:25:52.728Z,62.08
2022-12-29T01:28:40.976Z,62.50
2022-12-29T01:31:26.570Z,62.48
2022-12-29T01:34:13.052Z,62.50
2022-12-29T01:36:58.742Z,62.68
2022-12-29T01:39:44.385Z,62.69
2022-12-29T01:42:29.765Z,62.59
2022-12-29T01:45:19.280Z,62.80
2022-12-29T01:48:05.984Z,63.02
2022-12-29T01:50:54.438Z,62.81
2022-12-29T01:53:40.008Z,62.97
2022-12-29T01:56:25.793Z,63.12
2022-12-29T01:59:21.917Z,62.90
2022-12-29T02:02:08.312Z,62.61
2022-12-29T02:05:01.353Z,62.83
2022-12-29T02:07:51.810Z,62.52
2022-12-29T02:10:37.774Z,62.10
2022-12-29T02:13:26.261Z,62.02
2022-12-29T02:16:30.349Z,62.20
2022-12-29T02:19:38.919Z,62.32
2022-12-29T02:22:46.286Z,62.10
2022-12-29T02:25:46.636Z,62.16
2022-12-29T02:29:00.583Z,61.72
2022-12-29T02:31:58.124Z,61.37
2022-12-29T02:34:57.595Z,61.73
2022-12-29T02:38:10.310Z,61.72
2022-12-29T02:41:05.707Z,61.40
2022-12-29T02:44:20.730Z,61.31
2022-12-29T02:47:17.041Z,61.60
2022-12-29T02:50:26.469Z,61.44
2022-12-29T02:53:18.497Z,61.38
2022-12-29T02:56:04.665Z,61.17
2022-12-29T02:58:50.145Z,61.22
2022-12-29T03:02:21.222Z,61.41
2022-12-29T03:05:19.058Z,61.63
2022-12-29T03:08:30.237Z,61.36
2022-12-29T03:11:34.882Z,61.46
2022-12-29T03:15:01.057Z,61.74
2022-12-29T03:18:20.690Z,61.47
2022-12-29T03:21:12.725Z,61.80
2022-12-29T03:23:58.178Z,61.58
2022-12-29T03:26:47.127Z,61.59
2022-12-29T03:29:37.633Z,61.70
2022-12-29T03:32:26.980Z,62.04
2022-12-29T03:35:15.983Z,62.03
2022-12-29T03:38:23.414Z,61.89
2022-12-29T03:41:12.717Z,62.01
2022-12-29T03:43:58.023Z,62.03
2022-12-29T03:46:43.179Z,62.65
2022-12-29T03:49:29.400Z,62.40
2022-12-29T03:52:14.801Z,62.94
2022-12-29T03:55:03.151Z,62.96
2022-12-29T03:57:48.992Z,62.76
2022-12-29T04:00:41.391Z,63.04
2022-12-29T04:03:26.836Z,62.90
2022-12-29T04:06:12.475Z,63.31
2022-12-29T04:09:07.395Z,63.11
2022-12-29T04:11:58.927Z,63.39
2022-12-29T04:14:44.815Z,63.48
2022-12-29T04:17:30.721Z,64.16
2022-12-29T04:20:34.717Z,64.23
2022-12-29T04:23:21.796Z,63.94
2022-12-29T04:26:08.595Z,64.68
2022-12-29T04:28:57.944Z,64.19
2022-12-29T04:32:14.961Z,63.94
2022-12-29T04:35:06.717Z,64.41
2022-12-29T04:37:52.335Z,64.28
2022-12-29T04:40:40.523Z,64.56
2022-12-29T04:43:26.358Z,64.36
2022-12-29T04:46:38.174Z,64.26
2022-12-29T04:49:28.406Z,64.16
2022-12-29T04:52:49.440Z,63.82
2022-12-29T04:55:35.922Z,63.57
2022-12-29T04:58:23.078Z,63.81
2022-12-29T05:01:09.132Z,63.87
2022-12-29T05:03:54.355Z,63.58
2022-12-29T05:06:40.274Z,63.50
2022-12-29T05:09:26.282Z,63.79
2022-12-29T05:12:11.999Z,63.53
2022-12-29T05:15:08.172Z,63.24
2022-12-29T05:17:53.710Z,63.31
2022-12-29T05:20:39.151Z,63.58
2022-12-29T05:23:24.453Z,63.42
2022-12-29T05:26:15.669Z,63.29
2022-12-29T05:29:14.714Z,63.84
2022-12-29T05:32:01.139Z,63.84
2022-12-29T05:34:46.611Z,64.24
2022-12-29T05:37:32.196Z,64.13
2022-12-29T05:40:18.040Z,64.17
2022-12-29T05:43:04.061Z,64.17
2022-12-29T05:46:12.749Z,63.99
2022-12-29T05:49:25.026Z,64.56
2022-12-29T05:52:30.608Z,64.53
2022-12-29T05:55:16.611Z,64.22
2022-12-29T05:58:06.633Z,64.49
2022-12-29T06:00:52.962Z,64.16
2022-12-29T06:03:42.947Z,64.47
2022-12-29T06:06:31.647Z,63.97
2022-12-29T06:09:17.542Z,64.16
2022-12-29T06:12:02.795Z,63.72
2022-12-29T06:14:48.950Z,64.10
2022-12-29T06:17:35.510Z,63.52
2022-12-29T06:20:21.535Z,63.90
2022-12-29T06:23:07.041Z,64.09
2022-12-29T06:25:53.608Z,63.77
2022-12-29T06:28:39.730Z,64.24
2022-12-29T06:31:25.392Z,64.22
2022-12-29T06:34:11.193Z,64.18
2022-12-29T06:36:56.761Z,64.51
2022-12-29T06:39:42.170Z,64.59
2022-12-29T06:42:30.213Z,64.46
2022-12-29T06:45:48.367Z,65.10
2022-12-29T06:48:33.827Z,65.53
2022-12-29T06:51:19.708Z,65.43
2022-12-29T06:54:05.336Z,65.00
2022-12-29T06:56:50.705Z,65.08
2022-12-29T06:59:36.740Z,65.18
2022-12-29T07:02:23.062Z,65.81
2022-12-29T07:05:10.418Z,65.47
2022-12-29T07:07:56.598Z,66.08
2022-12-29T07:10:42.137Z,65.96
2022-12-29T07:13:27.828Z,65.93
2022-12-29T07:16:14.010Z,65.52
2022-12-29T07:19:00.636Z,66.06
2022-12-29T07:21:46.955Z,66.00
2022-12-29T07:24:32.441Z,65.90
2022-12-29T07:27:18.079Z,65.92
2022-12-29T07:30:03.810Z,65.94
2022-12-29T07:32:49.470Z,66.13
2022-12-29T07:35:35.866Z,65.45
2022-12-29T07:38:21.579Z,65.65
2022-12-29T07:41:07.684Z,65.63
2022-12-29T07:43:53.845Z,65.58
2022-12-29T07:46:53.674Z,64.98
2022-12-29T07:49:42.216Z,64.63
2022-12-29T07:52:28.022Z,64.06
2022-12-29T07:55:13.559Z,64.06
2022-12-29T07:57:58.972Z,63.35
2022-12-29T08:00:45.267Z,62.73
2022-12-29T08:03:31.309Z,62.54
2022-12-29T08:06:16.758Z,62.68
2022-12-29T08:09:09.839Z,62.76
2022-12-29T08:11:57.750Z,62.49
2022-12-29T08:14:43.235Z,62.06
2022-12-29T08:17:29.385Z,62.08
2022-12-29T08:20:14.772Z,63.00
2022-12-29T08:23:00.577Z,62.32
2022-12-29T08:25:46.143Z,61.62
2022-12-29T08:28:32.218Z,61.85
2022-12-29T08:31:18.133Z,61.16
2022-12-29T08:34:04.452Z,60.88
2022-12-29T08:36:51.361Z,59.88
2022-12-29T08:39:36.952Z,59.27
2022-12-29T08:42:22.479Z,59.19
2022-12-29T08:45:09.824Z,58.01
2022-12-29T08:47:55.790Z,58.49
2022-12-29T08:50:44.567Z,58.62
2022-12-29T08:53:29.925Z,58.17
2022-12-29T08:56:15.653Z,58.21
2022-12-29T08:59:07.792Z,57.35
2022-12-29T09:01:53.641Z,56.82
2022-12-29T09:04:39.550Z,56.62
2022-12-29T09:07:24.976Z,56.35
2022-12-29T09:10:10.260Z,56.47
2022-12-29T09:12:55.674Z,55.94
2022-12-29T09:15:41.116Z,55.67
2022-12-29T09:18:26.578Z,55.33
2022-12-29T09:21:13.246Z,54.51
2022-12-29T09:23:59.143Z,53.91
2022-12-29T09:26:47.077Z,54.11
2022-12-29T09:29:33.229Z,54.02
2022-12-29T09:32:19.026Z,53.31
2022-12-29T09:35:05.839Z,52.92
2022-12-29T09:37:51.683Z,52.77
2022-12-29T09:40:37.938Z,52.46
2022-12-29T09:43:48.258Z,52.30
2022-12-29T09:46:48.665Z,52.29
2022-12-29T09:49:50.621Z,52.03
2022-12-29T09:52:43.835Z,51.47
2022-12-29T09:55:43.985Z,51.25
2022-12-29T09:58:41.751Z,51.13
2022-12-29T10:01:33.743Z,50.55
2022-12-29T10:04:19.491Z,50.52
2022-12-29T10:07:31.007Z,49.48
2022-12-29T10:10:32.736Z,49.52
2022-12-29T10:13:26.332Z,49.36
2022-12-29T10:16:15.017Z,49.89
2022-12-29T10:19:19.052Z,50.55
2022-12-29T10:22:36.400Z,50.16
2022-12-29T10:25:29.807Z,49.74
2022-12-29T10:28:24.731Z,49.88
2022-12-29T10:31:37.556Z,48.42
2022-12-29T10:34:35.825Z,48.17
2022-12-29T10:37:44.571Z,48.47
2022-12-29T10:40:39.308Z,48.49
2022-12-29T10:43:36.416Z,49.01
2022-12-29T10:46:31.857Z,48.87
2022-12-29T10:49:22.060Z,48.36
2022-12-29T10:52:09.655Z,48.41
2022-12-29T10:55:00.801Z,48.32
2022-12-29T10:57:47.591Z,48.33
2022-12-29T11:00:34.498Z,48.42
2022-12-29T11:03:43.822Z,48.42
2022-12-29T11:06:30.660Z,48.81
2022-12-29T11:09:36.579Z,49.05
2022-12-29T11:12:30.242Z,48.83
2022-12-29T11:15:17.476Z,49.01
2022-12-29T11:18:03.615Z,49.06
2022-12-29T11:20:52.039Z,48.88
2022-12-29T11:23:43.754Z,49.19
2022-12-29T11:26:34.374Z,49.02
2022-12-29T11:29:28.368Z,49.38
2022-12-29T11:32:29.401Z,49.78
2022-12-29T11:35:32.432Z,49.54
2022-12-29T11:38:22.939Z,49.15
2022-12-29T11:41:20.054Z,49.28
2022-12-29T11:44:07.113Z,49.34
2022-12-29T11:46:53.759Z,49.27
2022-12-29T11:49:39.772Z,49.88
2022-12-29T11:52:28.090Z,50.94
2022-12-29T11:55:23.095Z,50.78
2022-12-29T12:21:45.422Z,52.50
2022-12-29T12:24:37.764Z,53.06
2022-12-29T12:27:29.645Z,53.24
2022-12-29T12:30:19.547Z,53.55
2022-12-29T12:33:13.006Z,53.24
2022-12-29T12:36:23.281Z,53.98
2022-12-29T12:39:18.445Z,53.78
2022-12-29T12:42:19.260Z,54.09
2022-12-29T12:45:08.117Z,54.22
2022-12-29T12:48:34.326Z,54.38
2022-12-29T12:51:53.185Z,54.67
2022-12-29T12:54:50.832Z,54.79
2022-12-29T12:57:54.371Z,55.40
2022-12-29T13:00:51.860Z,55.00
2022-12-29T13:04:00.759Z,55.01
2022-12-29T13:07:05.459Z,55.19
2022-12-29T13:10:22.057Z,55.22
2022-12-29T13:13:14.008Z,55.85
2022-12-29T13:16:14.525Z,55.60
2022-12-29T13:19:05.124Z,55.82
2022-12-29T13:22:05.953Z,56.15
2022-12-29T13:25:04.474Z,55.92
2022-12-29T13:28:06.120Z,55.56
2022-12-29T13:31:10.414Z,55.56
2022-12-29T13:34:25.215Z,56.19
2022-12-29T13:37:16.240Z,55.69
2022-12-29T13:40:16.276Z,55.82
2022-12-29T13:43:03.001Z,56.40
2022-12-29T13:45:58.556Z,56.56
2022-12-29T13:49:00.380Z,56.10
2022-12-29T13:51:52.658Z,56.27
2022-12-29T13:55:07.791Z,56.05
2022-12-29T13:58:02.200Z,56.65
2022-12-29T14:01:13.609Z,56.46
2022-12-29T14:04:03.860Z,56.17
2022-12-29T14:07:01.756Z,56.06
2022-12-29T14:09:53.689Z,55.98
2022-12-29T14:12:44.449Z,56.56
2022-12-29T14:15:30.088Z,56.50
2022-12-29T14:18:23.027Z,56.64
2022-12-29T14:21:11.411Z,56.31
2022-12-29T14:24:38.682Z,56.31
2022-12-29T14:27:30.322Z,57.05
2022-12-29T14:30:48.141Z,57.73
2022-12-29T14:33:35.526Z,57.79
2022-12-29T14:36:35.141Z,57.87
2022-12-29T14:39:39.605Z,58.68
2022-12-29T14:42:25.164Z,58.75
2022-12-29T14:45:13.782Z,58.69
2022-12-29T14:47:59.408Z,59.22
2022-12-29T14:50:46.136Z,59.29
2022-12-29T14:53:52.458Z,59.48
2022-12-29T14:56:40.374Z,59.64
2022-12-29T14:59:27.418Z,60.74
2022-12-29T15:02:23.199Z,59.81
2022-12-29T15:05:28.355Z,60.27
2022-12-29T15:08:17.360Z,60.09
2022-12-29T15:11:11.093Z,60.25
2022-12-29T15:13:56.812Z,60.06
2022-12-29T15:16:42.631Z,60.15
2022-12-29T15:19:29.051Z,60.05
2022-12-29T15:22:15.635Z,60.75
2022-12-29T15:25:01.171Z,60.57
2022-12-29T15:27:56.604Z,60.73
2022-12-29T15:30:56.567Z,60.51
2022-12-29T15:33:45.012Z,59.98
2022-12-29T15:36:37.628Z,59.98
2022-12-29T15:39:31.828Z,60.41
2022-12-29T15:42:28.430Z,60.12
2022-12-29T15:45:15.570Z,60.07
2022-12-29T15:48:01.393Z,60.07
2022-12-29T15:50:47.473Z,60.22
2022-12-29T15:53:34.610Z,60.18
2022-12-29T15:56:20.317Z,59.88
2022-12-29T15:59:05.848Z,60.33
2022-12-29T16:01:52.157Z,60.34
2022-12-29T16:04:54.221Z,60.49
2022-12-29T16:07:59.376Z,60.21
2022-12-29T16:10:44.850Z,60.48
2022-12-29T16:13:40.568Z,60.77
2022-12-29T16:16:31.457Z,60.74
2022-12-29T16:19:32.331Z,60.97
2022-12-29T16:22:45.986Z,60.76
2022-12-29T16:25:35.725Z,61.28
2022-12-29T16:28:24.529Z,61.25
2022-12-29T16:32:03.743Z,61.34
2022-12-29T16:34:49.224Z,61.28
2022-12-29T16:37:38.125Z,61.13
2022-12-29T16:40:31.736Z,61.66
2022-12-29T16:43:29.297Z,61.37
2022-12-29T16:46:31.100Z,61.66
2022-12-29T16:49:21.359Z,61.51
2022-12-29T16:52:19.416Z,61.48
2022-12-29T16:55:05.972Z,61.52
2022-12-29T16:57:54.736Z,61.39
2022-12-29T17:00:40.293Z,61.78
2022-12-29T17:03:43.595Z,61.70
2022-12-29T17:06:29.178Z,61.74
2022-12-29T17:09:32.812Z,61.43
2022-12-29T17:12:20.631Z,61.72
2022-12-29T17:15:13.900Z,61.57
2022-12-29T17:18:00.751Z,68.19
2022-12-29T17:20:46.158Z,65.16
2022-12-29T17:23:33.801Z,63.09
2022-12-29T17:26:19.720Z,63.11
2022-12-29T17:29:05.124Z,63.09
2022-12-29T17:31:50.643Z,63.19
2022-12-29T17:34:36.082Z,63.73
2022-12-29T17:37:24.509Z,63.45
2022-12-29T17:40:19.938Z,63.79
2022-12-29T17:43:05.413Z,63.67
2022-12-29T17:45:59.880Z,63.89
2022-12-29T17:48:51.510Z,63.90
2022-12-29T17:51:38.880Z,63.86
2022-12-29T17:54:26.511Z,64.34
2022-12-29T17:57:16.411Z,64.15
2022-12-29T18:00:02.536Z,64.03
2022-12-29T18:02:59.189Z,64.08
2022-12-29T18:05:45.387Z,63.91
2022-12-29T18:08:31.531Z,64.10
2022-12-29T18:11:27.458Z,64.10
2022-12-29T18:14:14.596Z,63.72
2022-12-29T18:17:00.916Z,63.87
2022-12-29T18:19:46.502Z,64.07
2022-12-29T18:22:32.564Z,64.13
2022-12-29T18:25:47.929Z,64.64
2022-12-29T18:28:34.854Z,64.63
2022-12-29T18:31:32.970Z,64.22
2022-12-29T18:34:23.954Z,64.51
2022-12-29T18:37:13.303Z,64.53
2022-12-29T18:39:59.720Z,64.46
2022-12-29T18:42:45.999Z,64.60
2022-12-29T18:45:33.675Z,65.07
2022-12-29T18:48:20.480Z,64.79
2022-12-29T18:51:06.798Z,64.53
2022-12-29T18:53:54.466Z,64.54
2022-12-29T18:56:40.531Z,64.82
2022-12-29T18:59:26.437Z,64.72
2022-12-29T19:02:17.441Z,64.89
2022-12-29T19:05:07.920Z,64.98
2022-12-29T19:07:54.807Z,64.73
2022-12-29T19:10:43.386Z,64.68
2022-12-29T19:13:29.615Z,64.63
2022-12-29T19:16:20.673Z,64.79
2022-12-29T19:19:15.756Z,64.42
2022-12-29T19:22:01.392Z,64.47
2022-12-29T19:24:46.780Z,64.49
2022-12-29T19:27:33.560Z,64.18
2022-12-29T19:30:19.783Z,64.27
2022-12-29T19:33:09.738Z,64.43
2022-12-29T19:36:00.914Z,64.67
2022-12-29T19:38:47.168Z,64.75
2022-12-29T19:41:32.985Z,65.19
2022-12-29T19:44:19.458Z,65.16
2022-12-29T19:47:04.996Z,65.19
2022-12-29T19:49:50.557Z,65.26
2022-12-29T19:52:36.321Z,65.29
2022-12-29T19:55:22.011Z,65.68
2022-12-29T19:58:07.431Z,65.38
2022-12-29T20:00:52.863Z,65.49
2022-12-29T20:03:39.679Z,65.44
2022-12-29T20:06:25.423Z,65.57
2022-12-29T20:09:10.657Z,65.22
2022-12-29T20:11:55.988Z,65.03
2022-12-29T20:14:42.382Z,64.66
2022-12-29T20:18:02.380Z,64.90
2022-12-29T20:20:35.051Z,65.02
2022-12-29T20:23:21.036Z,64.81
2022-12-29T20:26:09.071Z,65.22
2022-12-29T20:28:55.132Z,65.13
2022-12-29T20:31:41.087Z,65.03
2022-12-29T20:34:26.606Z,64.90
2022-12-29T20:37:12.723Z,65.25
2022-12-29T20:39:58.044Z,64.71
2022-12-29T20:42:43.515Z,64.48
2022-12-29T20:45:28.837Z,64.82
2022-12-29T20:48:14.274Z,64.92
2022-12-29T20:51:00.540Z,64.85
2022-12-29T20:53:47.414Z,64.97
2022-12-29T20:56:32.886Z,65.29
2022-12-29T20:59:27.460Z,65.21
2022-12-29T21:02:22.709Z,65.58
2022-12-29T21:05:25.420Z,65.14
2022-12-29T21:08:14.616Z,65.66
2022-12-29T21:11:10.956Z,66.24
2022-12-29T21:14:01.027Z,65.94
2022-12-29T21:16:47.650Z,66.12
2022-12-29T21:19:33.491Z,65.77
2022-12-29T21:22:19.217Z,66.01
2022-12-29T21:25:05.018Z,66.11
2022-12-29T21:27:50.971Z,66.81
2022-12-29T21:30:37.217Z,67.18
2022-12-29T21:33:23.099Z,67.04
2022-12-29T21:36:08.852Z,67.34
2022-12-29T21:38:55.015Z,67.63
2022-12-29T21:41:40.257Z,67.18
2022-12-29T21:44:46.074Z,67.25
2022-12-29T21:47:54.623Z,67.47
2022-12-29T21:51:01.440Z,67.33
2022-12-29T21:53:47.664Z,67.25
2022-12-29T21:56:33.071Z,67.33
2022-12-29T21:59:37.809Z,67.10
2022-12-29T22:02:44.099Z,66.94
2022-12-29T22:05:49.155Z,67.20
2022-12-29T22:08:54.368Z,67.41
2022-12-29T22:11:58.725Z,67.49
2022-12-29T22:14:44.088Z,68.09
2022-12-29T22:17:32.784Z,68.37
2022-12-29T22:20:25.580Z,68.42
2022-12-29T22:23:11.325Z,68.34
2022-12-29T22:25:56.461Z,68.78
2022-12-29T22:28:44.197Z,68.44
2022-12-29T22:31:32.675Z,68.46
2022-12-29T22:34:18.675Z,68.57
2022-12-29T22:37:04.466Z,67.99
2022-12-29T22:39:50.543Z,67.72
2022-12-29T22:42:37.692Z,67.73
2022-12-29T22:45:26.257Z,67.26
2022-12-29T22:48:11.870Z,67.31
2022-12-29T22:50:57.290Z,67.47
2022-12-29T22:53:42.997Z,67.68
2022-12-29T22:56:28.336Z,67.78
2022-12-29T22:59:14.975Z,67.34
2022-12-29T23:02:01.517Z,67.83
2022-12-29T23:05:02.941Z,67.71
2022-12-29T23:07:49.105Z,67.95
2022-12-29T23:10:34.680Z,68.45
2022-12-29T23:13:20.327Z,68.18
2022-12-29T23:16:07.075Z,67.96
2022-12-29T23:18:53.746Z,67.73
2022-12-29T23:21:40.021Z,67.85
2022-12-29T23:24:25.398Z,67.73
2022-12-29T23:27:10.713Z,67.87
2022-12-29T23:29:56.237Z,68.02
2022-12-29T23:32:41.650Z,68.04
2022-12-29T23:35:27.057Z,67.87
2022-12-29T23:38:12.576Z,67.82
2022-12-29T23:40:57.947Z,67.82
2022-12-29T23:43:43.290Z,68.44
2022-12-29T23:46:29.961Z,68.42
2022-12-29T23:49:15.653Z,68.18
2022-12-29T23:52:01.038Z,68.42
2022-12-29T23:54:46.531Z,68.36
2022-12-29T23:57:32.229Z,68.11
